Time;durP1;ratioP1;P1;durP2;ratioP2;P2;SDS_P1;SDS_P2;PMS_P1;PMS_P2;Temp;Humidity;BMP_temperature;BMP_pressure;BME280_temperature;BME280_humidity;BME280_pressure;Samples;Min_cycle;Max_cycle;Signal;HPM_P1;HPM_P2
2022/03/07 00:02:12;;;;;;;14.57;9.33;;;2.10;99.90;;;;;;4940986;28;20338;-36
2022/03/07 00:04:38;;;;;;;11.90;9.43;;;2.00;99.80;;;;;;4939834;28;20248;-38
2022/03/07 00:07:06;;;;;;;10.93;8.80;;;2.00;99.90;;;;;;4940533;28;20205;-37
2022/03/07 00:09:32;;;;;;;10.97;8.60;;;2.00;99.90;;;;;;4940701;28;20187;-38
2022/03/07 00:11:58;;;;;;;11.13;8.77;;;2.00;99.90;;;;;;4957387;28;20191;-36
2022/03/07 00:14:24;;;;;;;11.17;8.83;;;2.00;99.90;;;;;;4940324;28;20188;-37
2022/03/07 00:16:50;;;;;;;11.73;8.90;;;2.00;99.90;;;;;;4956305;28;20221;-38
2022/03/07 00:19:16;;;;;;;10.97;8.53;;;2.00;99.90;;;;;;4940048;28;20199;-38
2022/03/07 00:21:42;;;;;;;12.07;9.37;;;2.00;99.90;;;;;;4956146;28;20239;-38
2022/03/07 00:24:09;;;;;;;11.37;8.50;;;2.00;99.90;;;;;;4940500;28;20205;-37
2022/03/07 00:26:35;;;;;;;11.97;9.37;;;2.00;99.90;;;;;;4973969;28;20208;-36
2022/03/07 00:29:03;;;;;;;11.87;8.67;;;2.00;99.90;;;;;;4940258;28;20186;-37
2022/03/07 00:31:30;;;;;;;12.43;8.17;;;2.00;99.90;;;;;;4940542;28;20275;-38
2022/03/07 00:33:56;;;;;;;10.43;8.47;;;2.10;99.90;;;;;;4956310;28;20194;-37
2022/03/07 00:36:22;;;;;;;11.83;8.57;;;2.10;99.90;;;;;;4939885;28;20208;-37
2022/03/07 00:38:48;;;;;;;12.00;8.87;;;2.10;99.90;;;;;;4956024;28;20188;-38
2022/03/07 00:41:14;;;;;;;11.60;9.10;;;2.10;99.90;;;;;;4939680;28;20216;-37
2022/03/07 00:43:41;;;;;;;12.77;9.53;;;2.10;99.90;;;;;;4940171;28;20184;-37
2022/03/07 00:46:07;;;;;;;11.87;9.50;;;2.10;99.90;;;;;;4955519;28;20180;-38
2022/03/07 00:48:34;;;;;;;11.30;8.70;;;2.00;99.90;;;;;;4940334;28;20239;-37
2022/03/07 00:51:00;;;;;;;11.23;8.50;;;2.00;99.90;;;;;;4939642;28;20187;-37
2022/03/07 00:53:27;;;;;;;11.60;9.23;;;2.00;99.90;;;;;;4939355;28;20188;-37
2022/03/07 00:55:55;;;;;;;11.67;8.30;;;1.90;99.90;;;;;;4939919;28;20234;-38
2022/03/07 00:58:24;;;;;;;11.70;8.83;;;1.90;99.90;;;;;;4939620;28;20188;-37
2022/03/07 01:00:50;;;;;;;12.70;8.77;;;1.90;99.90;;;;;;4955348;28;20202;-39
2022/03/07 01:03:17;;;;;;;11.47;9.30;;;1.90;99.90;;;;;;4939367;28;20210;-37
2022/03/07 01:05:44;;;;;;;11.50;9.07;;;1.90;99.90;;;;;;4955550;28;20192;-37
2022/03/07 01:08:11;;;;;;;12.10;9.33;;;1.80;99.90;;;;;;4939685;28;20586;-37
2022/03/07 01:10:39;;;;;;;9.97;8.57;;;1.70;99.90;;;;;;4939153;28;20222;-37
2022/03/07 01:13:07;;;;;;;11.50;8.60;;;1.70;99.90;;;;;;4939462;28;20250;-37
2022/03/07 01:15:33;;;;;;;10.63;8.07;;;1.70;99.90;;;;;;4955720;28;20187;-37
2022/03/07 01:17:59;;;;;;;13.43;8.93;;;1.70;99.90;;;;;;4956048;28;20208;-37
2022/03/07 01:20:27;;;;;;;12.63;9.33;;;1.70;99.90;;;;;;4939064;28;20299;-37
2022/03/07 01:22:53;;;;;;;10.60;8.60;;;1.70;99.90;;;;;;4939966;28;20215;-37
2022/03/07 01:25:19;;;;;;;10.60;7.80;;;1.70;99.90;;;;;;4939518;28;20225;-37
2022/03/07 01:27:46;;;;;;;11.80;8.67;;;1.70;99.90;;;;;;4939853;28;20202;-37
2022/03/07 01:30:13;;;;;;;10.93;8.80;;;1.60;99.90;;;;;;4955585;28;20182;-37
2022/03/07 01:32:39;;;;;;;11.87;8.43;;;1.70;99.90;;;;;;4939512;28;20202;-37
2022/03/07 01:35:06;;;;;;;11.70;8.37;;;1.60;99.90;;;;;;4939930;28;20188;-37
2022/03/07 01:37:34;;;;;;;10.23;7.67;;;1.60;99.90;;;;;;4939296;28;20211;-37
2022/03/07 01:40:04;;;;;;;10.87;8.40;;;1.60;99.90;;;;;;4939709;28;20194;-37
2022/03/07 01:42:31;;;;;;;9.93;7.97;;;1.60;99.90;;;;;;4955471;28;20312;-37
2022/03/07 01:45:16;;;;;;;10.80;8.20;;;1.60;99.90;;;;;;4955691;28;20190;-37
2022/03/07 01:47:43;;;;;;;11.60;7.93;;;1.60;99.90;;;;;;4938761;28;20275;-37
2022/03/07 01:50:14;;;;;;;11.53;8.50;;;1.60;99.90;;;;;;4955179;28;20228;-37
2022/03/07 01:52:44;;;;;;;10.47;8.00;;;1.50;99.90;;;;;;4940780;28;20177;-37
2022/03/07 01:55:11;;;;;;;11.60;8.77;;;1.50;99.90;;;;;;4943185;28;20183;-37
2022/03/07 01:57:45;;;;;;;10.77;8.00;;;1.40;99.90;;;;;;4944233;28;20205;-38
2022/03/07 02:00:20;;;;;;;9.33;7.57;;;1.40;99.90;;;;;;4942663;28;20191;-37
2022/03/07 02:02:48;;;;;;;10.83;7.80;;;1.40;99.90;;;;;;4942925;28;20189;-37
2022/03/07 02:05:19;;;;;;;11.90;8.30;;;1.40;99.90;;;;;;4943481;28;20187;-37
2022/03/07 02:07:55;;;;;;;10.80;8.10;;;1.50;99.90;;;;;;4958783;28;20255;-37
2022/03/07 02:10:29;;;;;;;10.40;8.07;;;1.50;99.90;;;;;;4938685;29;20262;-37
2022/03/07 02:12:58;;;;;;;9.43;7.80;;;1.40;99.90;;;;;;4923834;29;20194;-37
2022/03/07 02:15:26;;;;;;;10.97;8.03;;;1.40;99.90;;;;;;4923603;29;20192;-37
2022/03/07 02:17:53;;;;;;;11.07;7.87;;;1.40;99.90;;;;;;4924181;29;20284;-37
2022/03/07 02:20:19;;;;;;;10.83;7.67;;;1.40;99.90;;;;;;4939025;29;20232;-37
2022/03/07 02:22:48;;;;;;;9.67;7.60;;;1.40;99.90;;;;;;4939395;29;20196;-37
2022/03/07 02:25:13;;;;;;;9.73;7.40;;;1.40;99.90;;;;;;4939432;29;20230;-37
2022/03/07 02:27:40;;;;;;;9.90;7.40;;;1.40;99.90;;;;;;4956036;28;20230;-37
2022/03/07 02:30:08;;;;;;;8.73;7.13;;;1.40;99.90;;;;;;4939121;29;20211;-39
2022/03/07 02:32:39;;;;;;;10.80;7.00;;;1.40;99.90;;;;;;4939073;29;20195;-37
2022/03/07 02:35:10;;;;;;;8.93;7.17;;;1.40;99.90;;;;;;4954565;28;20178;-38
2022/03/07 02:37:36;;;;;;;10.63;7.10;;;1.40;99.90;;;;;;4923191;29;20217;-37
2022/03/07 02:40:03;;;;;;;10.57;6.93;;;1.40;99.90;;;;;;4943359;28;20198;-37
2022/03/07 02:42:31;;;;;;;8.70;6.80;;;1.30;99.90;;;;;;4942629;28;20194;-37
2022/03/07 02:44:57;;;;;;;9.30;6.97;;;1.30;99.90;;;;;;4942199;28;20190;-37
2022/03/07 02:47:23;;;;;;;10.23;6.90;;;1.30;99.90;;;;;;4941938;28;20209;-37
2022/03/07 02:49:50;;;;;;;7.87;6.77;;;1.20;99.90;;;;;;4958017;28;20261;-37
2022/03/07 02:52:16;;;;;;;8.77;7.10;;;1.20;99.90;;;;;;4957826;28;20190;-37
2022/03/07 02:54:43;;;;;;;9.37;7.00;;;1.10;99.90;;;;;;4942441;28;20183;-37
2022/03/07 02:57:09;;;;;;;7.87;6.67;;;1.10;99.90;;;;;;4941599;28;20205;-37
2022/03/07 02:59:35;;;;;;;9.97;6.73;;;1.00;99.90;;;;;;4941597;28;20551;-37
2022/03/07 03:02:02;;;;;;;9.27;6.63;;;1.00;99.90;;;;;;4957785;28;20214;-37
2022/03/07 03:04:30;;;;;;;8.77;6.77;;;0.90;99.90;;;;;;4942114;28;20216;-37
2022/03/07 03:06:56;;;;;;;9.03;7.40;;;0.90;99.90;;;;;;4941914;28;20285;-37
2022/03/07 03:09:22;;;;;;;8.63;6.47;;;1.00;99.90;;;;;;4941316;28;20188;-37
2022/03/07 03:11:49;;;;;;;10.07;7.03;;;1.00;99.90;;;;;;4957835;28;20188;-37
2022/03/07 03:14:14;;;;;;;10.20;7.10;;;1.00;99.90;;;;;;4957611;28;20201;-37
2022/03/07 03:16:40;;;;;;;9.07;6.87;;;0.90;99.90;;;;;;4941436;28;20237;-37
2022/03/07 03:19:07;;;;;;;8.30;6.83;;;0.90;99.90;;;;;;4941424;28;20191;-37
2022/03/07 03:21:34;;;;;;;9.60;7.07;;;0.90;99.90;;;;;;4941275;28;20346;-37
2022/03/07 03:24:01;;;;;;;9.23;6.83;;;0.90;99.90;;;;;;4958045;28;20186;-37
2022/03/07 03:26:27;;;;;;;9.87;7.03;;;0.90;99.90;;;;;;4941454;28;20276;-37
2022/03/07 03:28:54;;;;;;;9.63;6.97;;;0.80;99.90;;;;;;4941445;28;20341;-37
2022/03/07 03:31:20;;;;;;;9.83;7.07;;;0.80;99.90;;;;;;4957809;28;20182;-37
2022/03/07 03:33:46;;;;;;;8.70;7.07;;;0.80;99.90;;;;;;4957341;28;20193;-38
2022/03/07 03:36:14;;;;;;;8.60;6.50;;;0.70;99.90;;;;;;4957007;28;20248;-37
2022/03/07 03:38:41;;;;;;;8.80;6.57;;;0.70;99.90;;;;;;4940764;28;20251;-37
2022/03/07 03:41:07;;;;;;;8.67;7.23;;;0.70;99.90;;;;;;4940841;28;20251;-38
2022/03/07 03:43:32;;;;;;;8.47;6.70;;;0.70;99.90;;;;;;4941056;28;20313;-37
2022/03/07 03:45:59;;;;;;;11.07;7.20;;;0.60;99.90;;;;;;4956874;28;20186;-37
2022/03/07 03:48:25;;;;;;;9.20;6.73;;;0.60;99.90;;;;;;4941067;28;20204;-37
2022/03/07 03:50:51;;;;;;;8.60;6.60;;;0.40;99.90;;;;;;4956307;28;20198;-37
2022/03/07 03:53:17;;;;;;;8.20;6.70;;;0.40;99.90;;;;;;4940743;28;20275;-37
2022/03/07 03:55:43;;;;;;;8.87;7.13;;;0.40;99.90;;;;;;4956897;28;20308;-37
2022/03/07 03:58:10;;;;;;;8.97;7.30;;;0.40;99.90;;;;;;4956658;28;20208;-39
2022/03/07 04:00:36;;;;;;;9.87;6.77;;;0.40;99.90;;;;;;4956901;28;20232;-37
2022/03/07 04:03:03;;;;;;;9.67;7.07;;;0.40;99.90;;;;;;4955846;28;20189;-37
2022/03/07 04:05:29;;;;;;;10.00;7.10;;;0.40;99.90;;;;;;4939857;28;20184;-37
2022/03/07 04:07:55;;;;;;;9.20;7.10;;;0.30;99.90;;;;;;4956245;28;20205;-37
2022/03/07 04:10:21;;;;;;;10.13;7.87;;;0.30;99.90;;;;;;4940377;28;20204;-37
2022/03/07 04:12:47;;;;;;;10.23;7.57;;;0.30;99.90;;;;;;4940440;28;20165;-37
2022/03/07 04:15:13;;;;;;;10.90;7.27;;;0.30;99.90;;;;;;4956565;28;20179;-37
2022/03/07 04:17:41;;;;;;;9.20;7.30;;;0.20;99.90;;;;;;4939182;28;20592;-37
2022/03/07 04:20:08;;;;;;;8.60;6.97;;;0.20;99.90;;;;;;4940033;28;20185;-37
2022/03/07 04:22:35;;;;;;;9.40;7.30;;;0.10;99.90;;;;;;4940587;28;20188;-37
2022/03/07 04:25:03;;;;;;;9.70;7.57;;;0.10;99.90;;;;;;4956573;28;20259;-37
2022/03/07 04:27:29;;;;;;;9.63;7.50;;;0.10;99.90;;;;;;4940293;28;20205;-38
2022/03/07 04:29:57;;;;;;;9.60;7.37;;;0.10;99.90;;;;;;4940292;28;20636;-37
2022/03/07 04:32:23;;;;;;;10.50;7.13;;;0.10;99.90;;;;;;4940117;28;20188;-39
2022/03/07 04:34:49;;;;;;;10.73;7.40;;;0.00;99.90;;;;;;4956350;28;20188;-37
2022/03/07 04:37:15;;;;;;;10.63;7.27;;;0.00;99.90;;;;;;4973542;28;20192;-37
2022/03/07 04:39:41;;;;;;;10.57;7.70;;;0.00;99.90;;;;;;4955977;28;20180;-39
2022/03/07 04:42:07;;;;;;;9.43;7.53;;;0.00;99.90;;;;;;4939998;28;20223;-37
2022/03/07 04:44:33;;;;;;;9.77;7.13;;;0.00;99.90;;;;;;4940335;28;20185;-37
2022/03/07 04:47:00;;;;;;;9.70;7.50;;;0.00;99.90;;;;;;4939798;28;20220;-38
2022/03/07 04:49:26;;;;;;;9.63;7.33;;;-0.10;99.90;;;;;;4939712;28;20189;-37
2022/03/07 04:51:52;;;;;;;10.70;7.27;;;-0.10;99.90;;;;;;4939932;28;20193;-37
2022/03/07 04:54:18;;;;;;;9.90;7.47;;;-0.10;99.90;;;;;;4956163;28;20180;-37
2022/03/07 04:56:47;;;;;;;11.93;7.83;;;-0.10;99.90;;;;;;4955993;28;20196;-38
2022/03/07 04:59:13;;;;;;;11.13;8.00;;;-0.20;99.90;;;;;;4957287;28;20184;-38
2022/03/07 05:01:40;;;;;;;11.67;7.37;;;-0.20;99.90;;;;;;4941738;28;20232;-37
2022/03/07 05:04:06;;;;;;;10.67;7.73;;;-0.20;99.90;;;;;;4957518;28;20188;-37
2022/03/07 05:06:32;;;;;;;8.77;7.37;;;-0.30;99.90;;;;;;4958146;28;20201;-37
2022/03/07 05:08:57;;;;;;;9.70;7.63;;;-0.30;99.90;;;;;;4941594;28;20247;-37
2022/03/07 05:11:24;;;;;;;11.37;8.13;;;-0.40;99.90;;;;;;4942866;29;20677;-40
2022/03/07 05:13:49;;;;;;;10.27;8.07;;;-0.30;99.90;;;;;;4923026;29;20178;-38
2022/03/07 05:16:16;;;;;;;11.50;7.90;;;-0.50;99.90;;;;;;4938160;29;20208;-37
2022/03/07 05:18:43;;;;;;;11.87;8.90;;;-0.50;99.90;;;;;;4938469;29;20252;-38
2022/03/07 05:21:09;;;;;;;12.63;8.50;;;-0.50;99.90;;;;;;4938461;29;20291;-38
2022/03/07 05:23:54;;;;;;;11.23;8.23;;;-0.50;99.90;;;;;;4938235;29;20225;-37
2022/03/07 05:26:20;;;;;;;12.70;8.80;;;-0.60;99.90;;;;;;4938327;29;20216;-37
2022/03/07 05:28:46;;;;;;;10.47;8.37;;;-0.60;99.90;;;;;;4938186;29;20177;-37
2022/03/07 05:31:13;;;;;;;13.27;8.97;;;-0.70;99.90;;;;;;4938438;29;20184;-37
2022/03/07 05:33:41;;;;;;;14.37;8.60;;;-0.80;99.90;;;;;;4922694;29;20177;-37
2022/03/07 05:36:07;;;;;;;12.53;8.30;;;-0.80;99.90;;;;;;4922165;29;20303;-37
2022/03/07 05:38:34;;;;;;;10.73;8.13;;;-0.70;99.90;;;;;;4935755;29;20193;-37
2022/03/07 05:41:00;;;;;;;11.17;8.43;;;-0.80;99.90;;;;;;4964636;28;20284;-42
2022/03/07 05:43:26;;;;;;;12.90;9.23;;;-0.70;99.90;;;;;;4955500;28;20235;-37
2022/03/07 05:45:52;;;;;;;12.77;8.73;;;-0.80;99.90;;;;;;4939025;28;20184;-37
2022/03/07 05:48:18;;;;;;;12.60;8.53;;;-0.80;99.90;;;;;;4954907;28;20185;-37
2022/03/07 05:50:45;;;;;;;11.93;8.63;;;-0.70;99.90;;;;;;4940372;28;20247;-39
2022/03/07 05:53:11;;;;;;;11.53;8.77;;;-0.70;99.90;;;;;;4938723;28;20391;-37
2022/03/07 05:55:37;;;;;;;11.47;8.67;;;-0.80;99.90;;;;;;4938764;28;20279;-39
2022/03/07 05:58:03;;;;;;;13.53;9.07;;;-0.70;99.90;;;;;;4954761;28;20657;-37
2022/03/07 06:00:29;;;;;;;11.47;8.63;;;-0.70;99.90;;;;;;4954650;28;20223;-39
2022/03/07 06:02:56;;;;;;;12.53;9.07;;;-0.70;99.90;;;;;;4954870;28;20207;-39
2022/03/07 06:05:22;;;;;;;12.67;8.93;;;-0.80;99.90;;;;;;4938858;28;20180;-38
2022/03/07 06:07:48;;;;;;;13.07;8.90;;;-0.80;99.90;;;;;;4955584;28;20200;-37
2022/03/07 06:10:14;;;;;;;11.87;9.03;;;-0.80;99.90;;;;;;4954303;28;20196;-38
2022/03/07 06:12:40;;;;;;;11.27;8.97;;;-0.80;99.90;;;;;;4938871;28;20187;-37
2022/03/07 06:15:07;;;;;;;14.30;9.03;;;-0.70;99.90;;;;;;4954408;28;20212;-37
2022/03/07 06:17:34;;;;;;;12.93;8.63;;;-0.70;99.90;;;;;;4938765;28;20396;-38
2022/03/07 06:20:01;;;;;;;12.87;8.93;;;-0.60;99.90;;;;;;4937702;28;20267;-38
2022/03/07 06:22:26;;;;;;;12.40;9.37;;;-0.70;99.90;;;;;;4937667;28;20219;-37
2022/03/07 06:24:52;;;;;;;13.43;8.70;;;-0.70;99.90;;;;;;4937334;28;20209;-37
2022/03/07 06:27:18;;;;;;;12.33;9.33;;;-0.60;99.90;;;;;;4937309;28;20450;-39
2022/03/07 06:29:44;;;;;;;12.30;9.33;;;-0.70;99.90;;;;;;4934894;29;20260;-35
2022/03/07 06:32:10;;;;;;;12.73;9.70;;;-0.70;99.90;;;;;;4936011;29;20201;-35
2022/03/07 06:34:36;;;;;;;13.53;8.73;;;-0.60;99.90;;;;;;4919994;29;20236;-35
2022/03/07 06:37:02;;;;;;;12.70;9.00;;;-0.60;99.90;;;;;;4967667;28;20205;-35
2022/03/07 06:39:29;;;;;;;11.87;9.17;;;-0.50;99.90;;;;;;4938614;28;20204;-35
2022/03/07 06:41:55;;;;;;;12.77;9.70;;;-0.50;99.90;;;;;;4957925;28;20212;-35
2022/03/07 06:44:22;;;;;;;14.03;9.93;;;-0.50;99.90;;;;;;4942137;28;20181;-35
2022/03/07 06:46:48;;;;;;;14.33;9.53;;;-0.40;99.90;;;;;;4958137;28;20213;-35
2022/03/07 06:49:14;;;;;;;14.67;9.57;;;-0.40;99.90;;;;;;4941934;28;20200;-35
2022/03/07 06:51:40;;;;;;;15.03;10.27;;;-0.30;99.90;;;;;;4948880;28;20177;-35
2022/03/07 06:54:07;;;;;;;15.73;10.03;;;-0.30;99.90;;;;;;4960089;28;20176;-35
2022/03/07 06:56:33;;;;;;;13.30;10.23;;;-0.30;99.90;;;;;;4959376;28;20211;-35
2022/03/07 06:58:59;;;;;;;13.77;9.53;;;-0.30;99.90;;;;;;4958044;28;20182;-35
2022/03/07 07:01:27;;;;;;;15.33;9.80;;;-0.20;99.90;;;;;;4958810;28;20205;-35
2022/03/07 07:03:52;;;;;;;13.13;9.43;;;-0.20;99.90;;;;;;4958303;28;20185;-35
2022/03/07 07:06:18;;;;;;;14.37;9.90;;;-0.20;99.90;;;;;;4957882;28;20565;-35
2022/03/07 07:08:44;;;;;;;13.60;10.10;;;-0.10;99.90;;;;;;4957897;28;20188;-38
2022/03/07 07:11:10;;;;;;;15.40;10.43;;;0.00;99.90;;;;;;4947868;28;20201;-35
2022/03/07 07:13:36;;;;;;;14.43;9.73;;;0.10;99.90;;;;;;4957551;28;20208;-35
2022/03/07 07:16:02;;;;;;;14.40;10.00;;;0.10;99.90;;;;;;4943638;28;20207;-35
2022/03/07 07:18:28;;;;;;;15.07;10.27;;;0.20;99.90;;;;;;4943208;28;20188;-35
2022/03/07 07:20:54;;;;;;;14.40;9.57;;;0.30;99.90;;;;;;4959564;28;20231;-35
2022/03/07 07:23:21;;;;;;;14.70;9.90;;;0.30;99.90;;;;;;4957668;28;20242;-35
2022/03/07 07:25:47;;;;;;;13.93;10.33;;;0.30;99.90;;;;;;4957446;28;20248;-35
2022/03/07 07:28:14;;;;;;;14.50;9.87;;;0.40;99.90;;;;;;4962407;28;20295;-36
2022/03/07 07:30:40;;;;;;;16.53;10.93;;;0.50;99.90;;;;;;4956991;28;20705;-35
2022/03/07 07:33:07;;;;;;;15.83;10.30;;;0.60;99.90;;;;;;4932572;28;20184;-35
2022/03/07 07:35:35;;;;;;;15.00;10.13;;;0.70;99.90;;;;;;4943894;29;20190;-36
2022/03/07 07:38:02;;;;;;;14.10;10.07;;;0.80;99.90;;;;;;4945649;28;20209;-36
2022/03/07 07:40:28;;;;;;;13.93;10.67;;;0.90;99.90;;;;;;4940389;28;20252;-39
2022/03/07 07:42:56;;;;;;;18.17;10.47;;;0.90;99.90;;;;;;4973803;28;20260;-38
2022/03/07 07:45:22;;;;;;;12.67;10.47;;;1.00;99.90;;;;;;4975825;28;20225;-38
2022/03/07 07:47:48;;;;;;;15.17;10.37;;;1.10;99.90;;;;;;4976369;28;20262;-35
2022/03/07 07:50:13;;;;;;;14.17;9.83;;;1.20;99.90;;;;;;4975574;28;20205;-35
2022/03/07 07:52:40;;;;;;;15.03;10.90;;;1.30;99.90;;;;;;4959927;28;20200;-37
2022/03/07 07:55:06;;;;;;;16.33;10.47;;;1.40;99.90;;;;;;4975202;28;20178;-37
2022/03/07 07:57:32;;;;;;;13.80;10.50;;;1.50;99.90;;;;;;4940799;28;20213;-35
2022/03/07 07:59:58;;;;;;;15.07;10.27;;;1.50;99.90;;;;;;4940324;28;20193;-35
2022/03/07 08:02:24;;;;;;;13.57;10.37;;;1.60;99.90;;;;;;4941478;28;20211;-37
2022/03/07 08:04:51;;;;;;;14.23;10.40;;;1.70;99.90;;;;;;4955977;28;20182;-37
2022/03/07 08:07:18;;;;;;;12.83;9.80;;;1.70;99.90;;;;;;4940261;28;20295;-35
2022/03/07 08:09:45;;;;;;;15.53;10.70;;;1.80;99.90;;;;;;4940054;28;20277;-37
2022/03/07 08:12:11;;;;;;;15.33;10.80;;;1.70;99.90;;;;;;4956279;28;20198;-35
2022/03/07 08:14:37;;;;;;;15.83;11.00;;;1.80;99.90;;;;;;4973563;28;20758;-37
2022/03/07 08:17:05;;;;;;;14.87;10.37;;;1.90;99.90;;;;;;4956893;28;20679;-39
2022/03/07 08:19:31;;;;;;;15.13;11.20;;;2.00;99.90;;;;;;4955825;28;20187;-37
2022/03/07 08:21:57;;;;;;;14.17;9.77;;;2.10;99.90;;;;;;4955146;28;20213;-35
2022/03/07 08:24:23;;;;;;;13.23;10.17;;;2.20;99.90;;;;;;4955808;28;20180;-35
2022/03/07 08:26:51;;;;;;;14.63;10.70;;;2.30;99.90;;;;;;4956058;28;20333;-35
2022/03/07 08:29:17;;;;;;;14.10;11.10;;;2.50;99.90;;;;;;4955977;28;20226;-35
2022/03/07 08:31:42;;;;;;;14.20;10.20;;;2.50;99.90;;;;;;4957220;28;20282;-35
2022/03/07 08:34:08;;;;;;;15.63;11.50;;;2.60;99.90;;;;;;4975230;28;20189;-37
2022/03/07 08:36:37;;;;;;;14.57;10.10;;;2.70;99.90;;;;;;4975130;28;20210;-36
2022/03/07 08:39:05;;;;;;;19.53;12.47;;;2.70;99.90;;;;;;4958409;28;20246;-37
2022/03/07 08:41:31;;;;;;;15.47;10.73;;;2.90;99.90;;;;;;4958978;28;20215;-37
2022/03/07 08:43:59;;;;;;;13.13;10.47;;;3.00;99.90;;;;;;4955506;28;20191;-40
2022/03/07 08:46:25;;;;;;;17.50;10.67;;;2.90;99.90;;;;;;4939143;28;20227;-37
2022/03/07 08:48:53;;;;;;;15.00;10.67;;;3.00;99.90;;;;;;4955353;28;20180;-38
2022/03/07 08:51:19;;;;;;;14.50;10.43;;;3.10;99.90;;;;;;4939363;28;20184;-38
2022/03/07 08:53:46;;;;;;;16.97;11.70;;;3.20;99.90;;;;;;4955724;28;20645;-40
2022/03/07 08:56:14;;;;;;;13.33;10.07;;;3.30;99.90;;;;;;4939461;28;20204;-37
2022/03/07 08:58:42;;;;;;;12.33;10.10;;;3.50;99.90;;;;;;4939443;28;20788;-37
2022/03/07 09:01:09;;;;;;;11.93;9.50;;;3.50;99.50;;;;;;4954772;28;20307;-38
2022/03/07 09:03:36;;;;;;;13.20;10.50;;;3.60;99.60;;;;;;4931103;28;20181;-38
2022/03/07 09:06:02;;;;;;;16.07;10.33;;;3.50;99.50;;;;;;4952465;28;20242;-38
2022/03/07 09:08:29;;;;;;;12.73;10.00;;;3.70;99.70;;;;;;4939650;28;20195;-38
2022/03/07 09:10:54;;;;;;;13.87;10.40;;;3.70;99.30;;;;;;4960092;28;20331;-38
2022/03/07 09:13:20;;;;;;;13.27;9.93;;;3.80;99.60;;;;;;4964713;28;20669;-38
2022/03/07 09:15:49;;;;;;;15.20;10.50;;;3.90;99.10;;;;;;4959040;28;20187;-39
2022/03/07 09:18:16;;;;;;;12.97;10.23;;;4.00;99.10;;;;;;4939915;28;20211;-39
2022/03/07 09:20:42;;;;;;;14.23;10.10;;;4.00;99.30;;;;;;4939532;28;20210;-38
2022/03/07 09:23:08;;;;;;;13.37;10.23;;;4.20;99.80;;;;;;4961475;28;20215;-38
2022/03/07 09:25:35;;;;;;;12.70;9.90;;;4.20;99.20;;;;;;4957792;28;20177;-39
2022/03/07 09:28:05;;;;;;;12.53;9.60;;;4.10;98.40;;;;;;4931794;28;20243;-38
2022/03/07 09:30:33;;;;;;;14.73;10.87;;;4.10;99.00;;;;;;4934793;28;20184;-38
2022/03/07 09:33:03;;;;;;;14.60;10.97;;;4.10;99.00;;;;;;4953059;28;20247;-38
2022/03/07 09:35:33;;;;;;;15.63;10.87;;;3.90;98.30;;;;;;4953154;28;20177;-38
2022/03/07 09:38:02;;;;;;;13.53;9.77;;;3.90;99.30;;;;;;4969020;28;20255;-38
2022/03/07 09:40:28;;;;;;;12.73;10.27;;;4.10;99.00;;;;;;4953687;28;20188;-38
2022/03/07 09:42:55;;;;;;;14.10;10.43;;;4.30;99.00;;;;;;4946129;28;20185;-38
2022/03/07 09:45:21;;;;;;;13.63;10.17;;;4.30;99.10;;;;;;4938500;28;20179;-38
2022/03/07 09:47:49;;;;;;;13.27;9.97;;;4.30;98.90;;;;;;4935513;29;20224;-38
2022/03/07 09:50:14;;;;;;;14.63;10.63;;;4.50;98.70;;;;;;4926967;28;20176;-38
2022/03/07 09:52:44;;;;;;;14.63;10.90;;;4.70;98.70;;;;;;4939019;28;20199;-38
2022/03/07 09:55:13;;;;;;;13.57;10.87;;;4.80;98.30;;;;;;4938473;28;20280;-39
2022/03/07 09:57:41;;;;;;;13.00;10.10;;;4.80;97.80;;;;;;4972317;28;20200;-38
2022/03/07 10:00:11;;;;;;;12.60;10.23;;;4.90;97.70;;;;;;4954527;28;20611;-44
2022/03/07 10:02:37;;;;;;;13.30;10.27;;;5.10;98.00;;;;;;4963313;28;20243;-37
2022/03/07 10:05:04;;;;;;;13.33;10.60;;;5.20;97.70;;;;;;4940866;28;20204;-36
2022/03/07 10:07:42;;;;;;;12.77;10.40;;;5.20;97.50;;;;;;4953790;28;20206;-36
2022/03/07 10:10:09;;;;;;;14.60;11.03;;;5.20;97.20;;;;;;4937624;28;20189;-36
2022/03/07 10:12:45;;;;;;;14.43;9.97;;;5.10;97.10;;;;;;4954707;28;20181;-36
2022/03/07 10:15:13;;;;;;;12.90;10.50;;;5.10;97.40;;;;;;4973799;28;20172;-36
2022/03/07 10:17:45;;;;;;;12.60;10.70;;;5.20;97.10;;;;;;4958416;28;20217;-35
2022/03/07 10:20:12;;;;;;;15.47;10.40;;;5.20;96.30;;;;;;4958214;28;20212;-37
2022/03/07 10:22:48;;;;;;;11.40;9.57;;;5.30;97.00;;;;;;4957546;28;20205;-35
2022/03/07 10:25:16;;;;;;;14.70;11.07;;;5.30;96.50;;;;;;4956433;28;20212;-37
2022/03/07 10:27:45;;;;;;;14.17;10.40;;;5.50;97.00;;;;;;4941796;28;20748;-36
2022/03/07 10:30:18;;;;;;;12.57;10.40;;;5.40;96.50;;;;;;4941866;28;20182;-36
2022/03/07 10:32:53;;;;;;;12.47;10.60;;;5.50;97.20;;;;;;4957413;28;20197;-36
2022/03/07 10:35:29;;;;;;;12.43;9.93;;;5.60;96.80;;;;;;4955816;28;20239;-37
2022/03/07 10:37:57;;;;;;;12.67;10.67;;;5.70;96.50;;;;;;4940731;28;20198;-37
2022/03/07 10:40:23;;;;;;;10.80;9.43;;;5.80;96.40;;;;;;4941813;28;20203;-37
2022/03/07 10:42:53;;;;;;;13.10;9.70;;;6.00;96.80;;;;;;4941681;28;20209;-37
2022/03/07 10:45:21;;;;;;;13.43;10.20;;;6.10;96.10;;;;;;4941221;28;20557;-37
2022/03/07 10:47:57;;;;;;;12.97;10.10;;;6.20;96.20;;;;;;4957388;28;20213;-38
2022/03/07 10:50:27;;;;;;;13.47;11.07;;;6.20;95.20;;;;;;4974739;28;20317;-37
2022/03/07 10:53:04;;;;;;;16.40;11.30;;;6.10;95.00;;;;;;4941674;28;20273;-36
2022/03/07 10:55:32;;;;;;;12.37;10.13;;;6.30;95.30;;;;;;4954934;28;20216;-37
2022/03/07 10:58:13;;;;;;;16.73;13.20;;;6.10;95.60;;;;;;4957294;28;20206;-37
2022/03/07 11:01:05;;;;;;;14.57;10.17;;;6.10;96.00;;;;;;4971364;28;20207;-38
2022/03/07 11:03:35;;;;;;;14.33;9.93;;;6.10;96.00;;;;;;4936556;28;20181;-37
2022/03/07 11:06:03;;;;;;;12.57;9.43;;;6.20;95.90;;;;;;4956082;28;20180;-36
2022/03/07 11:08:30;;;;;;;13.43;10.77;;;6.40;95.70;;;;;;4974407;28;20198;-38
2022/03/07 11:10:59;;;;;;;13.07;9.53;;;6.60;95.30;;;;;;4941399;28;20281;-36
2022/03/07 11:13:30;;;;;;;14.50;11.87;;;6.70;95.10;;;;;;4957301;28;20318;-39
2022/03/07 11:16:02;;;;;;;13.43;10.20;;;6.70;95.10;;;;;;4941363;28;20264;-36
2022/03/07 11:18:29;;;;;;;11.80;9.30;;;6.70;94.80;;;;;;4957534;28;20182;-39
2022/03/07 11:20:57;;;;;;;11.83;9.57;;;6.80;94.70;;;;;;4940797;28;20244;-38
2022/03/07 11:23:24;;;;;;;12.73;9.87;;;6.80;94.70;;;;;;4940813;28;20671;-38
2022/03/07 11:25:54;;;;;;;13.23;10.87;;;6.90;94.80;;;;;;4974255;28;20218;-43
2022/03/07 11:28:28;;;;;;;13.07;10.40;;;6.80;94.50;;;;;;4954955;28;20179;-39
2022/03/07 11:30:57;;;;;;;12.77;9.87;;;6.90;94.00;;;;;;4982502;28;20179;-40
2022/03/07 11:33:34;;;;;;;14.57;10.43;;;7.10;94.40;;;;;;4945389;28;20184;-39
2022/03/07 11:36:03;;;;;;;14.03;10.43;;;7.20;93.50;;;;;;4938785;28;20181;-39
2022/03/07 11:38:32;;;;;;;12.67;10.60;;;7.40;95.20;;;;;;4973498;28;20185;-36
2022/03/07 11:41:14;;;;;;;12.20;10.27;;;7.50;94.00;;;;;;4955670;28;20298;-39
2022/03/07 11:44:10;;;;;;;14.50;10.47;;;7.70;93.70;;;;;;4938565;28;20195;-38
2022/03/07 11:46:40;;;;;;;13.10;10.07;;;7.70;93.40;;;;;;4953859;28;20208;-38
2022/03/07 11:49:23;;;;;;;12.73;10.27;;;7.40;92.80;;;;;;4956852;28;20666;-39
2022/03/07 11:52:18;;;;;;;10.93;9.37;;;7.40;93.60;;;;;;4955372;28;20188;-39
2022/03/07 11:54:58;;;;;;;13.00;9.93;;;7.70;93.90;;;;;;4953601;28;20216;-40
2022/03/07 11:57:31;;;;;;;10.57;9.30;;;7.70;93.30;;;;;;4955018;28;20204;-39
2022/03/07 11:59:57;;;;;;;10.73;9.63;;;7.60;92.40;;;;;;4955613;28;20267;-38
2022/03/07 12:02:23;;;;;;;12.57;10.50;;;7.40;92.80;;;;;;4939427;28;20691;-38
2022/03/07 12:04:49;;;;;;;12.10;9.80;;;7.10;92.90;;;;;;4937948;28;20184;-40
2022/03/07 12:07:27;;;;;;;12.20;10.40;;;7.10;93.40;;;;;;4939255;28;20223;-41
2022/03/07 12:10:05;;;;;;;13.53;10.00;;;6.90;93.30;;;;;;4955988;28;20183;-40
2022/03/07 12:12:31;;;;;;;13.30;9.90;;;6.70;93.60;;;;;;4937686;28;20188;-38
2022/03/07 12:15:11;;;;;;;11.20;9.43;;;6.80;94.10;;;;;;4954611;28;20198;-40
2022/03/07 12:17:39;;;;;;;12.20;9.30;;;7.30;93.80;;;;;;4954716;28;20623;-40
2022/03/07 12:20:07;;;;;;;12.70;10.47;;;7.50;92.80;;;;;;4939793;28;20175;-38
2022/03/07 12:22:35;;;;;;;13.83;9.97;;;7.60;93.30;;;;;;4955651;28;20212;-39
2022/03/07 12:25:05;;;;;;;10.80;9.60;;;7.50;92.50;;;;;;4936857;29;20231;-38
2022/03/07 12:27:38;;;;;;;12.17;9.73;;;7.80;92.70;;;;;;4920661;29;20233;-41
2022/03/07 12:30:07;;;;;;;10.73;9.63;;;8.00;91.90;;;;;;4936817;29;20239;-38
2022/03/07 12:32:35;;;;;;;12.43;10.07;;;7.90;91.80;;;;;;4937016;29;20184;-39
2022/03/07 12:35:00;;;;;;;13.93;10.50;;;8.10;92.10;;;;;;4921148;29;20188;-40
2022/03/07 12:37:29;;;;;;;12.70;10.47;;;8.10;91.40;;;;;;4935774;29;20228;-38
2022/03/07 12:40:03;;;;;;;11.40;9.60;;;8.30;91.10;;;;;;4939515;28;20196;-39
2022/03/07 12:42:33;;;;;;;10.83;9.60;;;8.30;90.50;;;;;;4955732;28;20306;-40
2022/03/07 12:45:00;;;;;;;12.93;9.50;;;8.30;90.80;;;;;;4939813;28;20180;-39
2022/03/07 12:47:32;;;;;;;13.13;9.90;;;8.20;91.10;;;;;;4939268;28;20234;-40